LFMP/PGF METAR and TAF weather

Enter ICAO airport designator
Station Type Date Time Source
LFMP METAR 2021/03/03 20:00 UTC NOAA

LFMP 032000Z AUTO 06002KT 7000 FEW008 OVC028 12/10 Q1028 NOSIG


Station Type Date Time Source
LFMP Decoded METAR 2021/03/03 20:00 UTC NOAA

Perpignan, France (LFMP) 42-44N 002-52E 48M
Mar 03, 2021 - 03:00 PM EST / 2021.03.03 2000 UTC
Wind: from the ENE (060 degrees) at 2 MPH (2 KT):0
Visibility: 4 mile(s):0
Sky conditions: overcast
Temperature: 53 F (12 C)
Dew Point: 50 F (10 C)
Relative Humidity: 87%
Pressure (altimeter): 30.36 in. Hg (1028 hPa)
ob: LFMP 032000Z AUTO 06002KT 7000 FEW008 OVC028 12/10 Q1028 NOSIG
cycle: 20

Station Type Date Time Source
LFMP TAF 2021/03/03 15:46 UTC NOAA

TAF LFMP 031400Z 0315/0415 07006KT 9999 FEW015 SCT020
BECMG 0318/0321 BKN020
TEMPO 0404/0410 BKN008

Example: see airport list